Airfield :
LOGIN :

Register | Disclaimer

   EN    FR    IT 

 










Legend :    VFR   Marginal VFR   IFR   Intensive IFR   Very Intensive IFR
Visi :
Ceiling :
>= 8 km
>= 3000ft
5 to 8 km
1000 to 3000 ft
1500m to 5 km
500 to 1000 ft
800 to 1500m
200 to 500 ft
< 800m
< 200 ft
Symbols :   Thunderstorms  Fog  Heavy snow  Heavy precipitations  Wind > 20 kt
SIGMETs :     Misc.  Thunderstorms  Icing  Turbulence  Mountain Waves  Volcanic Ashes







- Airport Elevation : 681 ft
- IATA code : LBA
- Download approach charts


EGNM - Leeds Bradford

CURRENT METAR :
  • 201420Z 27010KT 9999 SCT040 16/14 Q1014

EXPIRED METARs :
  • 201350Z 27011KT 9999 -RA SCT040 15/13 Q1014
  • 201320Z 29013KT 9999 -RA SCT040 15/13 Q1014
  • 201250Z 28014KT 9999 FEW048 17/11 Q1014
  • 201220Z 29014KT 250V310 9999 FEW048 18/12 Q1014
  • 201150Z 25011KT 200V280 9999 FEW048 20/11 Q1013

TAF TAF EGNM
Valid from the 20 at 12:00 until the 21 at 12:00 UTC


201100Z 2012/2112 25008KT 9999 SCT040
TEMPO 2012/2102 7000 RA
BECMG 2018/2021 BKN012
TEMPO 2021/2106 BKN008
TEMPO 2106/2112 BKN018
ATIS : +44 113 250 9696 (x2489)
No reported NOTAMs for that airfield.



MET'MAP, your aeronautical weather chart ! - Copyright ORBIFLY December 2007 - Disclaimer

ORBIFLY MET'MAP TEAM :

Programming & Development : Alexandra Zaïnal
Concept & Development : Baudouin d'Aumeries
Co-Development & Prog : Marc-Olivier Méhu
Technical & hardware support : Manuel Goepfert

Contact : metmap@orbifly.com




SOURCES & CREDITS :

   NOAA